Time;durP1;ratioP1;P1;durP2;ratioP2;P2;SDS_P1;SDS_P2;PMS_P1;PMS_P2;Temp;Humidity;BMP_temperature;BMP_pressure;BME280_temperature;BME280_humidity;BME280_pressure;Samples;Min_cycle;Max_cycle;Signal;HPM_P1;HPM_P2
2023/02/10 00:07:23;;;;;;;30.88;13.50;;;-3.00;99.90;;;;;;20919602;28;20097;-78
2023/02/10 00:17:23;;;;;;;28.10;12.90;;;-3.10;99.90;;;;;;20919483;22;20060;-78
2023/02/10 00:27:24;;;;;;;38.03;12.73;;;-3.10;99.90;;;;;;20856942;28;20064;-78
2023/02/10 00:37:25;;;;;;;26.55;12.60;;;-3.30;99.90;;;;;;20844509;28;20021;-79
2023/02/10 00:47:26;;;;;;;37.92;12.75;;;-3.30;99.90;;;;;;20844309;28;20025;-79
2023/02/10 00:57:28;;;;;;;32.45;12.15;;;-3.60;99.90;;;;;;20852435;28;20030;-79
2023/02/10 01:07:29;;;;;;;28.77;12.13;;;-3.30;99.90;;;;;;20835258;28;20048;-79
2023/02/10 01:17:30;;;;;;;31.35;12.13;;;-3.50;99.90;;;;;;20834733;28;20061;-77
2023/02/10 01:27:30;;;;;;;37.40;13.00;;;-3.60;99.90;;;;;;20854224;28;20392;-79
2023/02/10 01:37:32;;;;;;;24.00;11.60;;;-3.80;99.90;;;;;;20850251;28;20025;-80
2023/02/10 01:47:33;;;;;;;29.08;12.73;;;-3.60;99.90;;;;;;20829698;28;20519;-79
2023/02/10 01:57:36;;;;;;;30.25;12.70;;;-3.80;99.90;;;;;;20834607;28;20400;-80
2023/02/10 02:07:37;;;;;;;28.60;11.65;;;-3.80;99.90;;;;;;20831843;28;20372;-80
2023/02/10 02:17:42;;;;;;;27.58;11.88;;;-3.90;99.90;;;;;;20859289;28;20112;-79
2023/02/10 02:39:01;;;;;;;28.85;11.80;;;-4.20;99.90;;;;;;20849249;28;20041;-78
2023/02/10 02:49:17;;;;;;;29.67;10.35;;;-4.20;99.90;;;;;;20862356;28;20033;-79
2023/02/10 02:59:58;;;;;;;27.98;10.95;;;-4.20;99.90;;;;;;20860395;28;20041;-80
2023/02/10 03:10:00;;;;;;;25.45;10.90;;;-4.50;99.90;;;;;;20827412;28;20030;-80
2023/02/10 03:20:01;;;;;;;26.45;10.38;;;-4.30;99.90;;;;;;20837694;28;20036;-80
2023/02/10 03:30:02;;;;;;;26.58;10.13;;;-4.20;99.90;;;;;;20854406;28;20029;-80
2023/02/10 03:40:03;;;;;;;25.30;11.52;;;-4.30;99.90;;;;;;20859427;28;20487;-79
2023/02/10 03:50:04;;;;;;;26.20;10.32;;;-4.30;99.90;;;;;;20874316;28;20038;-79
2023/02/10 04:00:05;;;;;;;33.17;13.77;;;-4.60;99.90;;;;;;20872990;28;20120;-79
2023/02/10 04:10:13;;;;;;;30.35;12.20;;;-4.70;99.90;;;;;;20861615;28;20037;-79
2023/02/10 04:20:14;;;;;;;29.02;12.60;;;-4.60;99.90;;;;;;20833254;28;20065;-79
2023/02/10 04:30:15;;;;;;;27.83;10.85;;;-4.60;99.90;;;;;;20847980;28;20110;-78
2023/02/10 04:40:16;;;;;;;34.75;13.45;;;-4.60;99.90;;;;;;20840122;28;20025;-79
2023/02/10 04:50:17;;;;;;;28.42;12.15;;;-4.70;99.90;;;;;;20850000;28;20108;-78
2023/02/10 05:00:18;;;;;;;27.17;10.77;;;-4.50;99.90;;;;;;20857794;28;20044;-78
2023/02/10 05:10:19;;;;;;;33.55;11.82;;;-4.40;99.90;;;;;;20828705;28;20037;-80
2023/02/10 05:20:20;;;;;;;25.23;10.00;;;-4.50;99.90;;;;;;20825241;28;20033;-81
2023/02/10 05:30:21;;;;;;;30.92;11.55;;;-4.60;99.90;;;;;;20812832;28;20033;-80
2023/02/10 05:40:23;;;;;;;25.05;10.27;;;-3.70;99.90;;;;;;20825181;28;20029;-79
2023/02/10 05:50:24;;;;;;;35.95;14.50;;;-3.60;99.90;;;;;;20804413;28;20040;-79
2023/02/10 06:00:24;;;;;;;36.38;12.00;;;-4.20;99.90;;;;;;20854595;28;20070;-80
2023/02/10 06:10:25;;;;;;;30.55;12.73;;;-4.00;99.90;;;;;;20825342;28;20043;-78
2023/02/10 06:20:26;;;;;;;36.55;14.40;;;-3.40;99.90;;;;;;20887737;22;20048;-76
2023/02/10 06:30:27;;;;;;;33.80;13.52;;;-4.00;99.90;;;;;;20881313;28;20052;-78
2023/02/10 06:40:28;;;;;;;37.75;14.60;;;-3.90;99.90;;;;;;20826930;28;20144;-80
2023/02/10 06:50:29;;;;;;;34.83;13.75;;;-4.10;99.90;;;;;;20834370;28;20030;-81
2023/02/10 07:00:32;;;;;;;27.52;10.98;;;-4.20;99.90;;;;;;20838394;28;20033;-80
2023/02/10 07:10:33;;;;;;;27.92;12.48;;;-2.30;99.90;;;;;;20841960;28;20441;-80
2023/02/10 07:20:34;;;;;;;23.23;11.35;;;-1.30;99.90;;;;;;20841791;28;20048;-79
2023/02/10 07:30:35;;;;;;;28.98;12.63;;;0.00;99.90;;;;;;20839887;28;20076;-80
2023/02/10 07:40:36;;;;;;;33.47;12.80;;;-1.80;99.90;;;;;;20815662;28;20448;-80
2023/02/10 07:50:36;;;;;;;32.88;13.02;;;-1.60;99.90;;;;;;20835153;28;20061;-80
2023/02/10 08:00:37;;;;;;;34.40;13.52;;;-1.40;99.90;;;;;;20836063;28;20037;-80
2023/02/10 08:10:41;;;;;;;30.13;12.25;;;-1.40;99.90;;;;;;20822545;28;20036;-79
2023/02/10 08:20:42;;;;;;;29.05;13.13;;;-0.60;99.90;;;;;;20790188;28;20091;-79
2023/02/10 08:30:43;;;;;;;28.98;11.73;;;-0.20;99.90;;;;;;20857583;28;20029;-82
2023/02/10 08:40:44;;;;;;;26.65;12.45;;;0.20;99.90;;;;;;20835562;28;20110;-83
2023/02/10 08:50:45;;;;;;;33.00;13.07;;;0.70;99.90;;;;;;20837273;28;20037;-81
2023/02/10 09:00:45;;;;;;;31.48;13.68;;;1.50;99.90;;;;;;20837337;28;20729;-79
2023/02/10 09:10:46;;;;;;;30.25;13.25;;;1.40;99.90;;;;;;20786881;28;20026;-80
2023/02/10 09:20:47;;;;;;;28.63;13.25;;;2.00;99.90;;;;;;20787194;28;20112;-81
2023/02/10 09:30:48;;;;;;;28.10;12.60;;;3.50;99.90;;;;;;20827889;28;20069;-79
2023/02/10 09:41:26;;;;;;;31.67;13.10;;;3.80;99.90;;;;;;20841619;28;20666;-78
2023/02/10 09:51:42;;;;;;;27.52;12.32;;;3.90;99.90;;;;;;20839318;28;20033;-79
2023/02/10 10:01:48;;;;;;;30.30;12.50;;;5.80;99.90;;;;;;20840863;28;20091;-80
2023/02/10 10:11:51;;;;;;;37.17;15.15;;;6.50;99.90;;;;;;20841960;28;20029;-81
2023/02/10 10:22:31;;;;;;;30.17;14.00;;;7.50;99.90;;;;;;20841769;28;20037;-80
2023/02/10 10:32:45;;;;;;;26.23;14.13;;;7.50;99.90;;;;;;20842031;28;20029;-80
2023/02/10 10:42:52;;;;;;;28.58;13.02;;;7.60;99.90;;;;;;20910645;28;20554;-83
2023/02/10 10:52:55;;;;;;;29.13;13.90;;;8.30;99.90;;;;;;20925593;28;20126;-81
2023/02/10 11:03:00;;;;;;;35.80;15.45;;;8.60;99.90;;;;;;20926218;28;20032;-79
2023/02/10 11:13:01;;;;;;;30.27;15.88;;;9.90;99.90;;;;;;20855784;28;20025;-80
2023/02/10 11:23:10;;;;;;;;;;;10.50;99.90;;;;;;20847269;28;20448;-81
2023/02/10 11:33:22;;;;;;;29.58;15.20;;;10.80;99.90;;;;;;20845344;28;19913;-79
2023/02/10 11:43:31;;;;;;;35.38;15.88;;;11.20;99.90;;;;;;20772439;28;20033;-80
2023/02/10 11:53:36;;;;;;;34.45;15.75;;;11.40;99.90;;;;;;20767390;28;20039;-83
2023/02/10 12:03:53;;;;;;;29.42;14.88;;;11.10;99.90;;;;;;20844223;28;20037;-81
2023/02/10 12:14:03;;;;;;;31.52;17.23;;;12.30;99.90;;;;;;20832138;28;20040;-82
2023/02/10 12:24:22;;;;;;;29.15;16.20;;;12.00;99.90;;;;;;20857861;22;20041;-82
2023/02/10 12:34:37;;;;;;;33.67;17.00;;;11.50;99.90;;;;;;20806208;28;20103;-80
2023/02/10 12:45:19;;;;;;;29.80;15.38;;;12.40;99.90;;;;;;20767251;28;20029;-80
2023/02/10 12:55:43;;;;;;;30.90;16.35;;;12.90;99.80;;;;;;20728641;28;20049;-80
2023/02/10 13:06:18;;;;;;;32.75;15.63;;;12.60;99.30;;;;;;20781275;28;20026;-80
2023/02/10 13:16:25;;;;;;;31.35;15.73;;;12.00;98.30;;;;;;20775694;28;20050;-79
2023/02/10 13:26:42;;;;;;;26.95;14.82;;;11.60;99.60;;;;;;20769427;28;20025;-80
2023/02/10 13:36:47;;;;;;;29.30;14.68;;;11.00;98.70;;;;;;20772432;28;20400;-79
2023/02/10 13:46:58;;;;;;;25.10;12.00;;;11.70;98.90;;;;;;20788856;28;20113;-79
2023/02/10 13:56:59;;;;;;;27.60;12.60;;;10.70;98.50;;;;;;20806759;28;20044;-80
2023/02/10 14:06:59;;;;;;;27.23;13.50;;;10.30;99.20;;;;;;20778146;28;20037;-79
2023/02/10 14:17:21;;;;;;;25.80;13.27;;;10.20;98.50;;;;;;20804110;28;20033;-79
2023/02/10 14:27:25;;;;;;;28.77;13.52;;;11.00;98.90;;;;;;20791605;28;20030;-80
2023/02/10 14:37:26;;;;;;;24.45;13.13;;;11.80;97.90;;;;;;20800798;28;20117;-80
2023/02/10 14:47:37;;;;;;;26.85;12.40;;;10.70;97.50;;;;;;20811439;28;20036;-80
2023/02/10 14:57:44;;;;;;;26.02;12.88;;;11.00;97.60;;;;;;20854030;28;20037;-80
2023/02/10 15:07:51;;;;;;;29.00;12.75;;;10.30;97.20;;;;;;20790398;28;20038;-80
2023/02/10 15:17:57;;;;;;;49.30;20.00;;;9.90;97.40;;;;;;20815574;28;20030;-80
2023/02/10 15:28:18;;;;;;;36.80;16.30;;;8.70;99.90;;;;;;20788677;28;20396;-81
2023/02/10 15:38:19;;;;;;;27.10;14.27;;;8.40;99.90;;;;;;20803402;28;20099;-78
2023/02/10 15:48:21;;;;;;;24.40;12.73;;;8.00;99.90;;;;;;20810161;28;20068;-80
2023/02/10 15:58:22;;;;;;;37.50;14.75;;;7.80;99.90;;;;;;20817377;28;20026;-80
2023/02/10 16:08:23;;;;;;;29.53;13.27;;;6.60;99.90;;;;;;20804610;28;20130;-81
2023/02/10 16:18:26;;;;;;;27.03;13.50;;;6.60;99.90;;;;;;20773696;28;20029;-81
2023/02/10 16:28:27;;;;;;;58.75;30.73;;;6.00;99.90;;;;;;20779024;28;20026;-81
2023/02/10 16:38:28;;;;;;;134.07;56.92;;;5.70;99.90;;;;;;20780639;28;20032;-79
2023/02/10 16:48:28;;;;;;;47.33;21.52;;;4.90;99.90;;;;;;20774557;28;20046;-80
2023/02/10 16:58:29;;;;;;;;;;;4.00;99.90;;;;;;20800893;28;20515;-81
2023/02/10 17:08:30;;;;;;;71.72;25.98;;;3.90;99.90;;;;;;20742465;28;20006;-80
2023/02/10 17:18:31;;;;;;;37.78;16.67;;;3.50;99.90;;;;;;20740789;28;20037;-80
2023/02/10 17:28:32;;;;;;;37.50;16.25;;;2.80;99.90;;;;;;20686549;28;20034;-81
2023/02/10 17:48:46;;;;;;;38.58;17.42;;;2.10;99.90;;;;;;20751113;28;20112;-79
2023/02/10 17:58:48;;;;;;;60.05;24.17;;;2.10;99.90;;;;;;20786352;28;20040;-82
2023/02/10 18:08:49;;;;;;;47.13;19.75;;;2.00;99.90;;;;;;20772160;28;20109;-81
2023/02/10 18:18:49;;;;;;;58.80;23.65;;;1.90;99.90;;;;;;20816081;23;20041;-81
2023/02/10 18:28:50;;;;;;;52.22;21.42;;;1.30;99.90;;;;;;20834110;28;20076;-79
2023/02/10 18:38:51;;;;;;;59.25;21.70;;;0.80;99.90;;;;;;20767930;28;20056;-79
2023/02/10 18:48:52;;;;;;;48.75;20.35;;;0.70;99.90;;;;;;20887266;28;20112;-81
2023/02/10 18:58:53;;;;;;;52.30;21.92;;;0.60;99.90;;;;;;20809415;28;20043;-80
2023/02/10 19:08:54;;;;;;;49.63;20.63;;;0.70;99.90;;;;;;20798193;28;20105;-78
2023/02/10 19:18:54;;;;;;;61.55;23.27;;;0.40;99.90;;;;;;20854452;28;20036;-77
2023/02/10 19:28:56;;;;;;;57.25;22.02;;;0.10;99.90;;;;;;20790286;28;20030;-81
2023/02/10 19:38:58;;;;;;;73.10;29.15;;;0.10;99.90;;;;;;20816873;28;20427;-79
2023/02/10 19:48:58;;;;;;;55.90;23.75;;;-0.10;99.90;;;;;;20844597;28;20380;-80
2023/02/10 19:58:59;;;;;;;43.88;17.90;;;-0.30;99.90;;;;;;20908508;28;20025;-79
2023/02/10 20:09:00;;;;;;;52.58;23.30;;;-0.40;99.90;;;;;;20822393;28;20029;-79
2023/02/10 20:19:01;;;;;;;46.83;21.02;;;-0.70;99.90;;;;;;20868027;28;20399;-81
2023/02/10 20:29:02;;;;;;;52.17;23.05;;;-0.50;99.90;;;;;;20809054;28;20034;-79
2023/02/10 20:39:05;;;;;;;46.72;20.50;;;-0.70;99.90;;;;;;20803721;28;20056;-78
2023/02/10 20:49:06;;;;;;;60.55;24.70;;;-0.80;99.90;;;;;;20870737;28;20073;-78
2023/02/10 20:59:06;;;;;;;59.22;24.00;;;-1.00;99.90;;;;;;20792194;28;20362;-78
2023/02/10 21:09:08;;;;;;;74.45;30.10;;;-1.10;99.90;;;;;;20750203;28;20396;-77
2023/02/10 21:19:09;;;;;;;120.95;44.35;;;-1.10;99.90;;;;;;20837683;28;20025;-78
2023/02/10 21:29:11;;;;;;;59.28;24.95;;;-1.50;99.90;;;;;;20912497;28;20094;-77
2023/02/10 21:39:12;;;;;;;61.85;24.77;;;-1.50;99.90;;;;;;20866950;28;20021;-76
2023/02/10 21:49:14;;;;;;;58.75;24.92;;;-1.50;99.90;;;;;;20875722;28;20036;-77
2023/02/10 21:59:15;;;;;;;88.85;34.20;;;-1.60;99.90;;;;;;20911042;28;20526;-78
2023/02/10 22:09:18;;;;;;;74.95;28.98;;;-1.60;99.90;;;;;;20815517;28;20442;-78
2023/02/10 22:19:19;;;;;;;62.10;24.00;;;-1.70;99.90;;;;;;20819650;28;20033;-78
2023/02/10 22:29:19;;;;;;;59.20;25.17;;;-1.50;99.90;;;;;;20826693;28;20108;-78
2023/02/10 22:39:20;;;;;;;62.42;24.35;;;-1.60;99.90;;;;;;20802960;28;20057;-78
2023/02/10 22:49:21;;;;;;;56.55;22.90;;;-2.00;99.90;;;;;;20814997;28;20082;-78
2023/02/10 22:59:22;;;;;;;67.85;25.27;;;-2.10;99.90;;;;;;20825951;28;20400;-78
2023/02/10 23:09:22;;;;;;;50.38;19.02;;;-1.90;99.90;;;;;;20814616;28;20497;-78
2023/02/10 23:19:27;;;;;;;53.40;20.27;;;-1.90;99.90;;;;;;20788315;28;20030;-78
2023/02/10 23:29:28;;;;;;;53.70;22.35;;;-2.10;99.90;;;;;;20740512;28;20045;-79
2023/02/10 23:39:29;;;;;;;45.30;19.42;;;-2.30;99.90;;;;;;20756626;28;20381;-78
2023/02/10 23:49:30;;;;;;;49.15;19.33;;;-2.20;99.90;;;;;;20849062;28;20021;-78
2023/02/10 23:59:31;;;;;;;45.00;18.63;;;-2.40;99.90;;;;;;20918036;28;20119;-78
